Time;durP1;ratioP1;P1;durP2;ratioP2;P2;SDS_P1;SDS_P2;PMS_P1;PMS_P2;Temp;Humidity;BMP_temperature;BMP_pressure;BME280_temperature;BME280_humidity;BME280_pressure;Samples;Min_cycle;Max_cycle;Signal;HPM_P1;HPM_P2
2023/08/17 00:01:02;;;;;;;0.80;0.80;;;16.90;99.90;;;;;;4962021;28;20503;-94
2023/08/17 00:03:37;;;;;;;0.80;0.80;;;17.00;99.90;;;;;;4961718;28;20061;-93
2023/08/17 00:06:03;;;;;;;0.80;0.80;;;16.90;99.90;;;;;;4964786;28;20418;-92
2023/08/17 00:08:28;;;;;;;0.80;0.80;;;17.00;99.90;;;;;;4959749;28;20043;-91
2023/08/17 00:10:57;;;;;;;0.75;0.75;;;16.90;99.90;;;;;;4963678;28;20046;-93
2023/08/17 00:13:23;;;;;;;0.80;0.80;;;16.90;99.90;;;;;;4965221;28;20053;-87
2023/08/17 00:15:52;;;;;;;0.80;0.80;;;16.90;99.90;;;;;;4979272;28;20046;-92
2023/08/17 00:18:23;;;;;;;0.80;0.80;;;16.90;99.90;;;;;;4969274;28;20065;-92
2023/08/17 00:20:52;;;;;;;;;;;16.80;99.90;;;;;;4962842;28;20074;-91
2023/08/17 00:23:23;;;;;;;0.90;0.90;;;16.80;99.90;;;;;;4963521;28;19929;-92
2023/08/17 00:25:52;;;;;;;0.98;0.98;;;16.70;99.90;;;;;;4962212;28;20054;-94
2023/08/17 00:28:21;;;;;;;0.90;0.90;;;16.80;99.90;;;;;;4966509;28;20042;-92
2023/08/17 00:30:50;;;;;;;0.90;0.90;;;16.70;99.90;;;;;;4963102;28;20132;-92
2023/08/17 00:33:34;;;;;;;1.00;1.00;;;16.80;99.90;;;;;;4965910;28;20180;-94
2023/08/17 00:36:00;;;;;;;1.00;1.00;;;16.80;99.90;;;;;;4966833;28;20193;-89
2023/08/17 00:38:25;;;;;;;1.08;1.08;;;16.70;99.90;;;;;;4962760;28;20801;-92
2023/08/17 00:40:51;;;;;;;1.10;1.10;;;16.70;99.90;;;;;;4977387;28;20053;-91
2023/08/17 00:43:24;;;;;;;1.00;1.00;;;16.70;99.90;;;;;;4963927;28;20050;-90
2023/08/17 00:45:53;;;;;;;1.10;1.10;;;16.70;99.90;;;;;;4963717;28;20034;-89
2023/08/17 00:48:19;;;;;;;1.10;1.10;;;16.70;99.90;;;;;;4966157;28;20192;-90
2023/08/17 00:50:48;;;;;;;1.17;1.17;;;16.70;99.90;;;;;;4962788;28;20042;-89
2023/08/17 00:53:16;;;;;;;1.10;1.10;;;16.60;99.90;;;;;;4963231;28;20991;-92
2023/08/17 00:55:42;;;;;;;1.20;1.20;;;16.60;99.90;;;;;;4961299;28;20121;-89
2023/08/17 00:58:11;;;;;;;1.23;1.23;;;16.70;99.90;;;;;;4956125;28;20093;-89
2023/08/17 01:00:37;;;;;;;1.27;1.27;;;16.70;99.90;;;;;;4961125;28;20073;-89
2023/08/17 01:03:06;;;;;;;1.25;1.25;;;16.70;99.90;;;;;;4956531;28;20109;-90
2023/08/17 01:05:32;;;;;;;1.25;1.25;;;16.60;99.90;;;;;;4958352;28;20128;-88
2023/08/17 01:08:01;;;;;;;1.17;1.17;;;16.80;99.90;;;;;;4954333;28;20055;-87
2023/08/17 01:10:47;;;;;;;1.20;1.20;;;16.80;99.90;;;;;;4963682;28;20053;-90
2023/08/17 01:13:33;;;;;;;1.23;1.23;;;16.70;99.90;;;;;;4956612;28;20437;-89
2023/08/17 01:16:08;;;;;;;1.23;1.23;;;16.70;99.90;;;;;;4955864;28;20069;-88
2023/08/17 01:18:36;;;;;;;1.23;1.23;;;16.70;99.90;;;;;;4958372;28;20046;-90
2023/08/17 01:21:05;;;;;;;1.25;1.25;;;16.70;99.90;;;;;;4963142;28;20046;-86
2023/08/17 01:23:31;;;;;;;1.27;1.27;;;16.70;99.90;;;;;;4959618;28;20054;-89
2023/08/17 01:25:57;;;;;;;1.25;1.25;;;16.60;99.90;;;;;;4964278;28;20035;-91
2023/08/17 01:28:23;;;;;;;1.30;1.30;;;16.70;99.90;;;;;;4962269;28;20507;-87
2023/08/17 01:31:08;;;;;;;1.20;1.20;;;16.60;99.90;;;;;;4975752;28;20133;-90
2023/08/17 01:33:37;;;;;;;1.23;1.23;;;16.60;99.90;;;;;;4976561;28;20054;-89
2023/08/17 01:36:12;;;;;;;1.13;1.13;;;16.60;99.90;;;;;;4967167;28;20039;-91
2023/08/17 01:38:40;;;;;;;1.05;1.05;;;16.70;99.90;;;;;;4977132;28;20210;-90
2023/08/17 01:41:12;;;;;;;1.10;1.10;;;16.80;99.90;;;;;;4965679;28;20054;-88
2023/08/17 01:43:44;;;;;;;1.05;1.05;;;16.70;99.90;;;;;;4960041;28;20038;-90
2023/08/17 01:46:10;;;;;;;0.95;0.95;;;16.60;99.90;;;;;;4962428;28;20057;-90
2023/08/17 01:48:35;;;;;;;1.00;1.00;;;16.70;99.90;;;;;;4956552;28;20051;-90
2023/08/17 01:51:01;;;;;;;1.00;1.00;;;16.70;99.90;;;;;;4959429;28;20720;-88
2023/08/17 01:53:27;;;;;;;1.00;1.00;;;16.70;99.90;;;;;;4978366;28;20058;-91
2023/08/17 01:55:55;;;;;;;0.90;0.90;;;16.70;99.90;;;;;;4963027;28;20086;-90
2023/08/17 01:58:21;;;;;;;0.90;0.90;;;16.60;99.90;;;;;;4960937;28;20049;-89
2023/08/17 02:00:46;;;;;;;0.90;0.90;;;16.60;99.90;;;;;;4960588;28;20043;-89
2023/08/17 02:03:12;;;;;;;0.90;0.90;;;16.50;99.90;;;;;;4979114;28;20069;-91
2023/08/17 02:05:38;;;;;;;0.85;0.85;;;16.60;99.90;;;;;;4958728;28;20053;-89
2023/08/17 02:08:03;;;;;;;0.90;0.90;;;16.40;99.90;;;;;;4963600;28;20074;-91
2023/08/17 02:10:29;;;;;;;0.80;0.80;;;16.50;99.90;;;;;;4957016;28;20484;-90
2023/08/17 02:12:55;;;;;;;0.80;0.80;;;16.40;99.90;;;;;;4961721;28;20053;-89
2023/08/17 02:15:20;;;;;;;0.80;0.80;;;16.40;99.90;;;;;;4972801;28;20131;-88
2023/08/17 02:17:46;;;;;;;0.90;0.90;;;16.40;99.90;;;;;;4979698;28;20038;-86
2023/08/17 02:20:12;;;;;;;0.70;0.70;;;16.40;99.90;;;;;;4960122;28;20039;-90
2023/08/17 02:22:38;;;;;;;0.80;0.80;;;16.40;99.90;;;;;;4981971;28;20054;-88
2023/08/17 02:25:04;;;;;;;0.70;0.70;;;16.40;99.90;;;;;;4964546;28;20050;-89
2023/08/17 02:27:33;;;;;;;0.80;0.80;;;16.30;99.90;;;;;;4976305;28;20444;-87
2023/08/17 02:29:58;;;;;;;0.70;0.70;;;16.40;99.90;;;;;;4961515;28;20819;-88
2023/08/17 02:32:24;;;;;;;0.70;0.70;;;16.40;99.90;;;;;;4964042;28;20097;-88
2023/08/17 02:34:50;;;;;;;0.77;0.77;;;16.40;99.90;;;;;;4965945;28;20046;-88
2023/08/17 02:37:15;;;;;;;0.80;0.80;;;16.40;99.90;;;;;;4983540;28;20046;-89
2023/08/17 02:39:41;;;;;;;0.70;0.70;;;16.40;99.90;;;;;;4963520;28;20046;-90
2023/08/17 02:42:07;;;;;;;0.77;0.77;;;16.30;99.90;;;;;;4962141;28;20043;-89
2023/08/17 02:44:32;;;;;;;0.75;0.75;;;16.30;99.90;;;;;;4980153;28;20050;-89
2023/08/17 02:46:58;;;;;;;0.80;0.80;;;16.20;99.90;;;;;;4981333;28;20046;-88
2023/08/17 02:49:24;;;;;;;0.70;0.70;;;16.20;99.90;;;;;;4964730;28;20046;-88
2023/08/17 02:51:49;;;;;;;0.80;0.80;;;16.20;99.90;;;;;;4959501;28;20042;-88
2023/08/17 02:54:15;;;;;;;0.80;0.80;;;16.30;99.90;;;;;;4957584;28;20504;-89
2023/08/17 02:56:41;;;;;;;0.80;0.80;;;16.20;99.90;;;;;;4961395;28;20054;-88
2023/08/17 02:59:06;;;;;;;0.70;0.70;;;16.30;99.90;;;;;;4963406;28;20054;-90
2023/08/17 03:01:38;;;;;;;0.80;0.80;;;16.20;99.90;;;;;;4961700;28;20057;-89
2023/08/17 03:04:04;;;;;;;0.80;0.80;;;16.30;99.90;;;;;;4977010;28;20051;-88
2023/08/17 03:06:30;;;;;;;0.90;0.90;;;16.20;99.90;;;;;;4980366;28;20034;-90
2023/08/17 03:08:55;;;;;;;0.85;0.85;;;16.20;99.90;;;;;;4982010;28;20043;-89
2023/08/17 03:11:21;;;;;;;0.90;0.90;;;16.30;99.90;;;;;;4979880;28;20042;-89
2023/08/17 03:13:48;;;;;;;0.90;0.90;;;16.10;99.90;;;;;;4962871;28;20548;-90
2023/08/17 03:16:15;;;;;;;0.80;0.80;;;16.20;99.90;;;;;;4965844;28;20042;-89
2023/08/17 03:18:41;;;;;;;0.90;0.90;;;16.20;99.90;;;;;;4958093;28;20043;-89
2023/08/17 03:21:07;;;;;;;0.80;0.80;;;16.30;99.90;;;;;;4960812;28;20053;-90
2023/08/17 03:23:33;;;;;;;0.80;0.80;;;16.20;99.90;;;;;;4960599;28;20048;-89
2023/08/17 03:25:58;;;;;;;0.80;0.80;;;16.20;99.90;;;;;;4963176;28;20047;-89
2023/08/17 03:28:30;;;;;;;0.80;0.80;;;16.20;99.90;;;;;;4978788;28;20047;-89
2023/08/17 03:30:56;;;;;;;0.80;0.80;;;16.20;99.90;;;;;;4963082;28;20042;-88
2023/08/17 03:33:22;;;;;;;0.80;0.80;;;16.20;99.90;;;;;;4957516;28;20125;-88
2023/08/17 03:35:48;;;;;;;0.80;0.80;;;16.20;99.90;;;;;;4977698;28;20122;-88
2023/08/17 03:38:16;;;;;;;0.80;0.80;;;16.20;99.90;;;;;;4978230;28;20121;-92
2023/08/17 03:40:50;;;;;;;0.70;0.70;;;16.30;99.90;;;;;;4982563;28;20049;-91
2023/08/17 03:43:16;;;;;;;0.80;0.80;;;16.40;99.90;;;;;;4959214;28;20197;-89
2023/08/17 03:45:45;;;;;;;0.90;0.90;;;16.30;99.90;;;;;;4958960;28;20060;-92
2023/08/17 03:48:11;;;;;;;0.90;0.90;;;16.30;99.90;;;;;;4965955;28;20619;-91
2023/08/17 03:50:42;;;;;;;0.80;0.80;;;16.30;99.90;;;;;;4962634;28;20077;-91
2023/08/17 03:53:10;;;;;;;0.80;0.80;;;16.40;99.90;;;;;;4964657;28;20136;-92
2023/08/17 03:55:36;;;;;;;0.80;0.80;;;16.30;99.90;;;;;;4964584;28;20035;-92
2023/08/17 03:58:07;;;;;;;0.80;0.80;;;16.40;99.90;;;;;;4964436;28;20046;-90
2023/08/17 04:00:36;;;;;;;0.80;0.80;;;16.40;99.90;;;;;;4976748;28;20140;-90
2023/08/17 04:03:08;;;;;;;0.80;0.80;;;16.30;99.90;;;;;;4965289;28;20050;-88
2023/08/17 04:05:34;;;;;;;0.80;0.80;;;16.40;99.90;;;;;;4958846;28;20046;-90
2023/08/17 04:08:02;;;;;;;0.80;0.80;;;16.40;99.90;;;;;;4979450;28;20752;-90
2023/08/17 04:10:34;;;;;;;0.70;0.70;;;16.50;99.90;;;;;;4964057;28;20049;-90
2023/08/17 04:12:59;;;;;;;0.70;0.70;;;16.40;99.90;;;;;;4987788;28;20826;-90
2023/08/17 04:15:25;;;;;;;0.70;0.70;;;16.50;99.90;;;;;;4979861;28;20042;-89
2023/08/17 04:17:51;;;;;;;0.70;0.70;;;16.50;99.90;;;;;;4962902;28;20496;-91
2023/08/17 04:20:18;;;;;;;0.70;0.70;;;16.50;99.90;;;;;;4977583;28;20377;-88
2023/08/17 04:22:44;;;;;;;0.70;0.70;;;16.50;99.90;;;;;;4967774;28;20046;-90
2023/08/17 04:25:09;;;;;;;0.70;0.70;;;16.50;99.90;;;;;;4968457;28;20046;-90
2023/08/17 04:27:35;;;;;;;0.70;0.70;;;16.50;99.90;;;;;;4970013;28;20061;-91
2023/08/17 04:30:01;;;;;;;0.70;0.70;;;16.40;99.90;;;;;;4976945;28;20046;-91
2023/08/17 04:32:27;;;;;;;0.70;0.70;;;16.50;99.90;;;;;;4962841;28;20045;-91
2023/08/17 04:34:52;;;;;;;0.70;0.70;;;16.40;99.90;;;;;;4964623;28;20074;-91
2023/08/17 04:37:18;;;;;;;0.70;0.70;;;16.50;99.90;;;;;;4960725;28;20038;-91
2023/08/17 04:39:48;;;;;;;0.70;0.70;;;16.50;99.90;;;;;;4963574;28;20685;-91
2023/08/17 04:42:14;;;;;;;0.70;0.70;;;16.40;99.90;;;;;;4958346;28;20543;-92
2023/08/17 04:44:40;;;;;;;0.70;0.70;;;16.40;99.90;;;;;;4977230;28;20054;-92
2023/08/17 04:47:09;;;;;;;0.70;0.70;;;16.40;99.90;;;;;;4985621;28;20094;-94
2023/08/17 04:49:40;;;;;;;0.65;0.65;;;16.50;99.90;;;;;;4970212;28;20038;-93
2023/08/17 04:52:06;;;;;;;0.70;0.70;;;16.50;99.90;;;;;;4963484;28;20043;-91
2023/08/17 04:54:33;;;;;;;0.60;0.60;;;16.50;99.90;;;;;;4967824;28;20058;-93
2023/08/17 04:57:04;;;;;;;0.60;0.60;;;16.50;99.90;;;;;;4981132;28;20042;-92
2023/08/17 04:59:34;;;;;;;0.70;0.70;;;16.50;99.90;;;;;;4963887;28;20050;-93
2023/08/17 05:01:59;;;;;;;0.60;0.60;;;16.50;99.90;;;;;;4959561;28;20039;-93
2023/08/17 05:04:30;;;;;;;0.70;0.70;;;16.50;99.90;;;;;;4962406;28;20046;-92
2023/08/17 05:06:59;;;;;;;0.75;0.75;;;16.40;99.90;;;;;;4965811;28;20069;-93
2023/08/17 05:09:27;;;;;;;0.60;0.60;;;16.50;99.90;;;;;;4966443;28;20047;-93
2023/08/17 05:11:53;;;;;;;0.65;0.65;;;16.50;99.90;;;;;;4962132;28;20046;-93
2023/08/17 05:14:18;;;;;;;0.68;0.68;;;16.60;99.90;;;;;;4958818;28;20109;-89
2023/08/17 05:16:44;;;;;;;0.60;0.60;;;16.50;99.90;;;;;;4974991;28;20046;-90
2023/08/17 05:19:10;;;;;;;0.68;0.68;;;16.60;99.90;;;;;;4959291;28;20046;-89
2023/08/17 05:21:36;;;;;;;0.70;0.70;;;16.50;99.90;;;;;;4976139;28;20460;-87
2023/08/17 05:24:02;;;;;;;0.70;0.70;;;16.50;99.90;;;;;;4962355;28;20057;-91
2023/08/17 05:26:27;;;;;;;0.70;0.70;;;16.50;99.90;;;;;;4965479;28;20046;-88
2023/08/17 05:28:53;;;;;;;0.60;0.60;;;16.60;99.90;;;;;;4958058;28;20138;-94
2023/08/17 05:31:19;;;;;;;0.60;0.60;;;16.60;99.90;;;;;;4959575;28;20078;-89
2023/08/17 05:33:44;;;;;;;0.70;0.70;;;16.70;99.90;;;;;;4962257;28;20093;-92
2023/08/17 05:36:11;;;;;;;0.70;0.70;;;16.60;99.90;;;;;;4959814;28;20498;-89
2023/08/17 05:38:36;;;;;;;0.70;0.70;;;16.60;99.90;;;;;;4960907;28;20058;-90
2023/08/17 05:41:04;;;;;;;0.70;0.70;;;16.80;99.90;;;;;;4963302;28;20047;-94
2023/08/17 05:43:33;;;;;;;0.70;0.70;;;16.70;99.90;;;;;;4966336;28;20043;-94
2023/08/17 05:45:59;;;;;;;0.70;0.70;;;16.70;99.90;;;;;;4962078;28;20047;-87
2023/08/17 05:48:25;;;;;;;0.70;0.70;;;16.70;99.90;;;;;;4972945;28;20050;-88
2023/08/17 05:51:07;;;;;;;;;;;;;;;;;;;;;
2023/08/17 05:53:39;;;;;;;0.70;0.70;;;16.90;99.90;;;;;;4981299;28;20085;-92
2023/08/17 05:56:04;;;;;;;0.75;0.75;;;16.90;99.90;;;;;;4962334;28;20051;-90
2023/08/17 05:58:30;;;;;;;0.80;0.80;;;16.80;99.90;;;;;;4961505;28;20047;-93
2023/08/17 06:01:24;;;;;;;0.80;0.80;;;16.90;99.90;;;;;;4968382;28;20065;-91
2023/08/17 06:04:08;;;;;;;0.80;0.80;;;17.00;99.90;;;;;;4920742;29;20048;-91
2023/08/17 06:06:43;;;;;;;0.80;0.80;;;16.90;99.90;;;;;;4986599;28;20046;-89
2023/08/17 06:09:08;;;;;;;0.82;0.82;;;16.90;99.90;;;;;;4962243;28;20081;-86
2023/08/17 06:11:34;;;;;;;0.80;0.80;;;17.10;99.90;;;;;;4981385;28;20115;-86
2023/08/17 06:14:00;;;;;;;0.90;0.90;;;17.10;99.90;;;;;;4963214;28;20101;-88
2023/08/17 06:16:25;;;;;;;0.80;0.80;;;17.10;99.90;;;;;;4961137;28;20039;-88
2023/08/17 06:18:51;;;;;;;0.80;0.80;;;17.10;99.90;;;;;;4963891;28;20042;-87
2023/08/17 06:21:20;;;;;;;0.80;0.80;;;17.30;99.90;;;;;;4983973;28;20038;-93
2023/08/17 06:23:46;;;;;;;1.00;1.00;;;17.30;99.90;;;;;;4965674;28;20046;-90
2023/08/17 06:26:14;;;;;;;1.00;1.00;;;17.40;99.90;;;;;;4964635;28;20082;-91
2023/08/17 06:28:40;;;;;;;0.80;0.80;;;17.50;99.90;;;;;;4967460;28;20057;-90
2023/08/17 06:31:09;;;;;;;1.00;1.00;;;17.70;99.90;;;;;;4959521;28;20038;-92
2023/08/17 06:33:34;;;;;;;0.93;0.93;;;17.90;99.90;;;;;;4963580;28;20054;-89
2023/08/17 06:36:00;;;;;;;1.10;1.10;;;17.90;99.90;;;;;;4977643;28;20050;-92
2023/08/17 06:38:32;;;;;;;1.27;1.27;;;17.90;99.90;;;;;;4984747;28;20046;-91
2023/08/17 06:40:58;;;;;;;1.27;1.27;;;18.00;99.90;;;;;;4984233;28;20554;-92
2023/08/17 06:43:26;;;;;;;1.40;1.40;;;17.90;99.90;;;;;;4962141;28;20078;-93
2023/08/17 06:45:51;;;;;;;1.60;1.50;;;17.90;99.90;;;;;;4980497;28;20643;-88
2023/08/17 06:48:20;;;;;;;1.60;1.50;;;17.80;99.90;;;;;;4982548;28;20121;-93
2023/08/17 06:50:46;;;;;;;1.60;1.50;;;18.00;99.90;;;;;;4963591;28;20039;-92
2023/08/17 06:53:11;;;;;;;1.50;1.40;;;18.00;99.90;;;;;;4984078;28;20051;-93
2023/08/17 06:55:40;;;;;;;1.60;1.50;;;18.00;99.90;;;;;;4960584;28;20058;-89
2023/08/17 06:58:05;;;;;;;1.60;1.50;;;17.90;99.90;;;;;;4982916;28;20073;-92
2023/08/17 07:00:31;;;;;;;1.50;1.40;;;17.70;99.90;;;;;;4966490;28;20495;-90
2023/08/17 07:02:58;;;;;;;1.52;1.42;;;17.90;99.90;;;;;;4967391;28;20125;-89
2023/08/17 07:05:23;;;;;;;1.60;1.50;;;17.80;99.90;;;;;;4956944;28;20058;-89
2023/08/17 07:07:52;;;;;;;1.50;1.40;;;18.00;99.90;;;;;;4967215;28;20384;-91
2023/08/17 07:10:24;;;;;;;1.65;1.55;;;17.90;99.90;;;;;;4967046;28;20053;-91
2023/08/17 07:12:53;;;;;;;1.70;1.60;;;17.80;99.90;;;;;;4961336;28;20051;-91
2023/08/17 07:15:31;;;;;;;1.70;1.60;;;17.90;99.90;;;;;;4973864;28;20049;-93
2023/08/17 07:17:59;;;;;;;1.60;1.50;;;17.90;99.90;;;;;;4965787;28;20050;-93
2023/08/17 07:20:25;;;;;;;1.70;1.60;;;17.80;99.90;;;;;;4970198;28;20510;-90
2023/08/17 07:22:51;;;;;;;1.60;1.50;;;17.80;99.90;;;;;;4962674;28;20141;-91
2023/08/17 07:25:18;;;;;;;1.70;1.60;;;17.90;99.90;;;;;;4976922;28;20060;-92
2023/08/17 07:27:44;;;;;;;1.70;1.60;;;18.00;99.90;;;;;;4964547;28;20046;-93
2023/08/17 07:30:25;;;;;;;1.70;1.60;;;17.90;99.90;;;;;;4978357;28;20050;-92
2023/08/17 07:32:51;;;;;;;1.60;1.50;;;17.80;99.90;;;;;;4966607;28;20057;-88
2023/08/17 07:35:20;;;;;;;1.60;1.50;;;18.00;99.90;;;;;;4962742;28;20046;-89
2023/08/17 07:37:45;;;;;;;1.70;1.60;;;17.90;99.90;;;;;;4957595;28;20071;-90
2023/08/17 07:40:14;;;;;;;1.60;1.50;;;17.90;99.90;;;;;;4959850;28;20065;-93
2023/08/17 07:42:43;;;;;;;1.85;1.75;;;17.90;99.90;;;;;;4979711;28;20046;-86
2023/08/17 07:45:09;;;;;;;1.60;1.50;;;17.90;99.90;;;;;;4976662;28;20124;-89
2023/08/17 07:47:38;;;;;;;1.70;1.60;;;17.90;99.90;;;;;;4959684;28;20039;-92
2023/08/17 07:50:07;;;;;;;1.60;1.50;;;18.00;99.90;;;;;;4965664;28;20049;-94
2023/08/17 07:52:33;;;;;;;1.80;1.70;;;18.00;99.90;;;;;;4966058;28;20047;-88
2023/08/17 07:54:59;;;;;;;1.50;1.40;;;18.00;99.90;;;;;;4973258;28;20061;-86
2023/08/17 07:57:25;;;;;;;1.50;1.40;;;18.00;99.90;;;;;;4973620;28;20436;-91
2023/08/17 07:59:53;;;;;;;1.83;1.73;;;18.10;99.90;;;;;;4984169;28;20058;-93
2023/08/17 08:02:19;;;;;;;1.70;1.60;;;18.00;99.90;;;;;;4961714;28;20090;-90
2023/08/17 08:04:45;;;;;;;1.60;1.50;;;18.10;99.90;;;;;;4975293;28;20116;-90
2023/08/17 08:07:14;;;;;;;1.52;1.42;;;18.10;99.90;;;;;;4959921;28;20054;-90
2023/08/17 08:09:40;;;;;;;1.30;1.30;;;18.30;99.90;;;;;;4993384;28;20046;-91
2023/08/17 08:12:07;;;;;;;1.30;1.30;;;18.30;99.90;;;;;;4973191;28;20177;-91
2023/08/17 08:14:34;;;;;;;1.25;1.25;;;18.30;99.90;;;;;;4957318;28;20108;-94
2023/08/17 08:17:00;;;;;;;1.20;1.20;;;18.30;99.90;;;;;;4960732;28;20049;-90
2023/08/17 08:19:28;;;;;;;1.30;1.30;;;18.40;99.90;;;;;;4959846;28;20047;-91
2023/08/17 08:22:22;;;;;;;1.25;1.25;;;18.50;99.90;;;;;;4961906;28;20140;-95
2023/08/17 08:24:48;;;;;;;1.20;1.20;;;18.60;99.90;;;;;;4977726;28;20137;-89
2023/08/17 08:27:27;;;;;;;1.30;1.30;;;18.50;99.90;;;;;;4964772;28;20129;-92
2023/08/17 08:29:59;;;;;;;1.30;1.30;;;18.70;99.90;;;;;;4968627;28;20042;-91
2023/08/17 08:32:25;;;;;;;1.40;1.40;;;18.60;99.90;;;;;;4961177;28;20631;-91
2023/08/17 08:34:50;;;;;;;1.27;1.27;;;18.60;99.90;;;;;;4981517;28;20497;-90
2023/08/17 08:37:25;;;;;;;1.30;1.30;;;18.60;99.90;;;;;;4961673;28;20528;-93
2023/08/17 08:40:43;;;;;;;;;;;;;;;;;;;;;
2023/08/17 08:43:09;;;;;;;1.15;1.15;;;18.60;99.90;;;;;;4980501;28;20097;-90
2023/08/17 08:45:37;;;;;;;1.20;1.20;;;18.70;99.90;;;;;;4961331;28;20491;-89
2023/08/17 08:48:03;;;;;;;1.20;1.20;;;18.80;99.90;;;;;;4963763;28;20049;-90
2023/08/17 08:50:31;;;;;;;1.20;1.20;;;18.80;99.90;;;;;;4976451;28;20073;-91
2023/08/17 08:53:53;;;;;;;1.30;1.30;;;19.00;99.90;;;;;;4962972;28;20050;-96
2023/08/17 08:56:24;;;;;;;1.10;1.10;;;18.90;99.90;;;;;;4963010;28;20054;-86
2023/08/17 08:58:50;;;;;;;1.08;1.08;;;18.90;99.90;;;;;;4977982;28;21510;-88
2023/08/17 09:01:19;;;;;;;1.10;1.10;;;18.80;99.90;;;;;;4962193;28;20054;-92
2023/08/17 09:03:53;;;;;;;1.10;1.10;;;18.90;99.90;;;;;;4975752;28;20070;-90
2023/08/17 09:06:21;;;;;;;1.10;1.10;;;18.70;99.90;;;;;;4978629;28;20050;-92
2023/08/17 09:09:04;;;;;;;1.00;1.00;;;18.60;99.90;;;;;;4962815;28;20054;-93
2023/08/17 09:11:30;;;;;;;1.00;1.00;;;18.60;99.90;;;;;;4960342;28;20476;-91
2023/08/17 09:14:07;;;;;;;1.00;1.00;;;18.70;99.90;;;;;;4981087;28;20038;-89
2023/08/17 09:16:33;;;;;;;0.90;0.90;;;18.70;99.90;;;;;;4957811;28;20065;-89
2023/08/17 09:18:59;;;;;;;1.00;1.00;;;18.80;99.90;;;;;;4974273;28;20485;-89
2023/08/17 09:21:25;;;;;;;1.00;1.00;;;18.80;99.90;;;;;;4957851;28;20121;-91
2023/08/17 09:23:55;;;;;;;1.00;1.00;;;18.80;99.90;;;;;;4972608;28;20078;-90
2023/08/17 09:26:24;;;;;;;1.10;1.10;;;18.80;99.90;;;;;;4975449;28;20097;-89
2023/08/17 09:28:51;;;;;;;1.13;1.13;;;18.80;99.90;;;;;;4975172;28;20150;-92
2023/08/17 09:31:21;;;;;;;1.00;1.00;;;18.90;99.90;;;;;;4977089;28;20125;-88
2023/08/17 09:33:53;;;;;;;1.05;1.05;;;19.00;99.90;;;;;;4979457;28;20048;-87
2023/08/17 09:36:25;;;;;;;1.00;1.00;;;19.00;99.90;;;;;;4960600;28;20043;-93
2023/08/17 09:38:51;;;;;;;1.00;1.00;;;18.90;99.90;;;;;;4981717;28;20104;-88
2023/08/17 09:41:20;;;;;;;0.90;0.90;;;19.00;99.90;;;;;;4969573;28;20054;-94
2023/08/17 09:43:46;;;;;;;1.00;1.00;;;18.80;99.90;;;;;;4961155;28;20079;-87
2023/08/17 09:46:12;;;;;;;0.90;0.90;;;18.90;99.90;;;;;;4959337;28;20043;-90
2023/08/17 09:48:44;;;;;;;0.95;0.95;;;19.10;99.90;;;;;;4967462;28;20047;-93
2023/08/17 09:51:27;;;;;;;0.90;0.90;;;19.10;99.90;;;;;;4964090;28;20077;-92
2023/08/17 09:53:57;;;;;;;0.80;0.80;;;19.00;99.90;;;;;;4967505;28;20049;-94
2023/08/17 09:56:24;;;;;;;1.10;1.10;;;19.30;99.90;;;;;;4981275;28;20135;-89
2023/08/17 09:58:52;;;;;;;1.02;1.02;;;19.30;99.90;;;;;;4965806;28;20054;-90
2023/08/17 10:01:25;;;;;;;1.00;1.00;;;19.20;99.90;;;;;;4968126;28;20053;-92
2023/08/17 10:03:52;;;;;;;1.10;1.10;;;19.60;99.90;;;;;;4962907;28;20578;-92
2023/08/17 10:06:24;;;;;;;0.95;0.95;;;19.60;99.90;;;;;;4969731;28;20049;-91
2023/08/17 10:08:52;;;;;;;1.00;1.00;;;19.50;99.90;;;;;;4970357;28;20050;-92
2023/08/17 10:11:21;;;;;;;0.98;0.98;;;19.60;99.90;;;;;;4965808;28;20046;-89
2023/08/17 10:14:11;;;;;;;0.95;0.95;;;19.70;99.90;;;;;;4959489;28;20054;-91
2023/08/17 10:16:45;;;;;;;0.80;0.80;;;19.60;99.90;;;;;;4985639;28;20052;-90
2023/08/17 10:19:11;;;;;;;0.70;0.70;;;19.50;99.90;;;;;;4984848;28;20053;-92
2023/08/17 10:21:54;;;;;;;0.75;0.75;;;19.60;99.90;;;;;;4964493;28;20058;-90
2023/08/17 10:24:23;;;;;;;0.80;0.80;;;19.40;99.90;;;;;;4984009;28;20142;-89
2023/08/17 10:26:49;;;;;;;0.90;0.90;;;19.40;99.90;;;;;;4966297;28;20524;-91
2023/08/17 10:29:20;;;;;;;0.80;0.80;;;19.60;99.90;;;;;;4966751;28;20050;-93
2023/08/17 10:31:46;;;;;;;0.80;0.80;;;19.50;99.90;;;;;;4965031;28;20140;-92
2023/08/17 10:34:13;;;;;;;0.73;0.73;;;19.30;99.90;;;;;;4965742;28;20050;-90
2023/08/17 10:36:40;;;;;;;0.73;0.73;;;19.50;99.90;;;;;;4966488;28;20035;-92
2023/08/17 10:39:29;;;;;;;0.85;0.85;;;19.60;99.90;;;;;;4941705;28;20043;-93
2023/08/17 10:41:57;;;;;;;0.77;0.77;;;19.80;99.90;;;;;;4980192;28;20129;-88
2023/08/17 10:44:45;;;;;;;0.80;0.80;;;19.80;99.90;;;;;;4964340;28;20047;-91
2023/08/17 10:47:27;;;;;;;0.75;0.75;;;19.90;99.90;;;;;;4963138;28;20053;-90
2023/08/17 10:49:59;;;;;;;0.70;0.70;;;19.80;99.90;;;;;;4963584;28;20062;-91
2023/08/17 10:52:40;;;;;;;0.70;0.70;;;19.90;99.90;;;;;;4965630;28;20046;-89
2023/08/17 10:55:11;;;;;;;0.80;0.80;;;19.80;99.90;;;;;;4963857;28;20512;-93
2023/08/17 10:57:42;;;;;;;0.70;0.70;;;20.00;99.90;;;;;;4983805;28;20058;-94
2023/08/17 11:01:10;;;;;;;0.70;0.70;;;19.70;99.90;;;;;;4982358;28;20128;-96
2023/08/17 11:03:36;;;;;;;0.80;0.80;;;19.70;99.90;;;;;;4924582;29;20517;-91
2023/08/17 11:06:17;;;;;;;0.70;0.70;;;19.70;99.90;;;;;;4907783;29;20105;-90
2023/08/17 11:12:25;;;;;;;0.70;0.70;;;19.80;99.90;;;;;;4904155;29;20052;-89
2023/08/17 11:14:51;;;;;;;0.70;0.70;;;19.80;99.90;;;;;;4979603;28;20050;-92
2023/08/17 11:17:19;;;;;;;0.70;0.70;;;19.70;99.90;;;;;;4962604;28;20507;-91
2023/08/17 11:19:51;;;;;;;0.70;0.70;;;19.60;99.90;;;;;;4982812;28;20136;-94
2023/08/17 11:22:17;;;;;;;0.73;0.73;;;19.90;99.90;;;;;;4965048;28;20046;-92
2023/08/17 11:24:46;;;;;;;0.70;0.70;;;19.90;99.90;;;;;;4966916;28;20053;-92
2023/08/17 11:27:12;;;;;;;0.60;0.60;;;19.80;99.90;;;;;;4976986;28;20051;-91
2023/08/17 11:29:38;;;;;;;0.70;0.70;;;19.70;99.90;;;;;;4965389;28;20084;-91
2023/08/17 11:32:04;;;;;;;0.73;0.73;;;19.50;99.90;;;;;;4963902;28;20042;-90
2023/08/17 11:34:30;;;;;;;0.70;0.70;;;19.60;99.90;;;;;;4981611;28;20284;-89
2023/08/17 11:36:57;;;;;;;0.70;0.70;;;19.50;99.90;;;;;;4963481;28;20047;-90
2023/08/17 11:39:23;;;;;;;0.70;0.70;;;19.50;99.90;;;;;;4963878;28;20057;-90
2023/08/17 11:41:51;;;;;;;0.70;0.70;;;19.40;99.90;;;;;;4960611;28;20039;-90
2023/08/17 11:44:21;;;;;;;0.80;0.80;;;19.60;99.90;;;;;;4963414;28;20166;-89
2023/08/17 11:46:47;;;;;;;0.70;0.70;;;19.60;99.90;;;;;;4959649;28;20074;-88
2023/08/17 11:49:13;;;;;;;0.77;0.77;;;19.50;99.90;;;;;;4959274;28;20232;-90
2023/08/17 11:51:40;;;;;;;0.70;0.70;;;19.60;99.90;;;;;;4957130;28;20050;-88
2023/08/17 11:54:07;;;;;;;0.73;0.73;;;19.70;99.90;;;;;;4956106;28;20092;-89
2023/08/17 11:56:36;;;;;;;0.70;0.70;;;19.80;99.90;;;;;;4971218;28;20050;-87
2023/08/17 11:59:13;;;;;;;0.70;0.70;;;19.80;99.90;;;;;;4972872;28;20038;-88
2023/08/17 12:01:40;;;;;;;0.80;0.80;;;19.80;99.90;;;;;;4961566;28;20381;-89
2023/08/17 12:04:08;;;;;;;0.70;0.70;;;19.90;99.90;;;;;;4976366;28;20046;-89
2023/08/17 12:06:42;;;;;;;0.82;0.82;;;19.70;99.90;;;;;;4959286;28;20086;-90
2023/08/17 12:09:21;;;;;;;0.82;0.82;;;19.90;99.90;;;;;;4978821;28;20050;-90
2023/08/17 12:11:46;;;;;;;0.85;0.85;;;20.00;99.90;;;;;;4963513;28;20129;-90
2023/08/17 12:14:12;;;;;;;0.75;0.75;;;20.20;99.90;;;;;;4960748;28;20149;-89
2023/08/17 12:16:48;;;;;;;0.75;0.75;;;20.20;99.90;;;;;;4962284;28;20050;-89
2023/08/17 12:19:20;;;;;;;0.70;0.70;;;20.20;99.90;;;;;;4962048;28;20050;-90
2023/08/17 12:21:56;;;;;;;0.70;0.70;;;20.20;99.90;;;;;;4965560;28;20098;-91
2023/08/17 12:24:39;;;;;;;0.65;0.65;;;20.30;99.90;;;;;;4962839;28;20046;-91
2023/08/17 12:27:10;;;;;;;0.60;0.60;;;20.50;99.90;;;;;;4963282;28;20543;-95
2023/08/17 12:29:49;;;;;;;0.65;0.65;;;20.50;99.90;;;;;;4959415;28;20046;-89
2023/08/17 12:32:22;;;;;;;0.50;0.50;;;20.80;99.90;;;;;;4961259;28;20065;-88
2023/08/17 12:34:53;;;;;;;0.50;0.50;;;21.40;99.90;;;;;;4958167;28;20046;-89
2023/08/17 12:37:23;;;;;;;0.50;0.50;;;21.40;99.90;;;;;;4957028;28;20038;-88
2023/08/17 12:39:48;;;;;;;0.50;0.50;;;21.30;99.90;;;;;;4961590;28;20042;-89
2023/08/17 12:42:14;;;;;;;0.60;0.60;;;21.10;99.90;;;;;;4957256;28;20050;-88
2023/08/17 12:44:43;;;;;;;0.50;0.50;;;21.10;99.90;;;;;;4971723;28;20152;-87
2023/08/17 12:47:10;;;;;;;0.50;0.50;;;21.30;99.90;;;;;;4978063;28;20050;-87
2023/08/17 12:49:36;;;;;;;0.50;0.50;;;21.30;99.90;;;;;;4960154;28;20214;-90
2023/08/17 12:52:02;;;;;;;0.50;0.50;;;21.40;99.90;;;;;;4961361;28;20041;-89
2023/08/17 12:54:28;;;;;;;0.50;0.50;;;21.10;99.90;;;;;;4975585;28;20603;-90
2023/08/17 12:56:53;;;;;;;0.50;0.50;;;21.10;99.90;;;;;;4960979;28;20061;-88
2023/08/17 12:59:19;;;;;;;0.50;0.50;;;21.10;99.90;;;;;;4959721;28;20057;-87
2023/08/17 13:01:48;;;;;;;0.50;0.50;;;21.30;99.90;;;;;;4976405;28;20054;-94
2023/08/17 13:04:13;;;;;;;0.50;0.50;;;21.20;99.90;;;;;;4964395;28;20074;-87